sensor_id;sensor_type;location;lat;lon;timestamp;pressure;altitude;pressure_sealevel;temperature;humidity
18765;BME280;9511;54.242;12.448;2024-01-30T04:05:30;102646.34;;;1.18;100.00
18765;BME280;9511;54.242;12.448;2024-01-30T04:07:57;102640.34;;;1.19;100.00
18765;BME280;9511;54.242;12.448;2024-01-30T04:10:25;102646.78;;;1.22;100.00
18765;BME280;9511;54.242;12.448;2024-01-30T04:12:52;102646.44;;;1.28;100.00
18765;BME280;9511;54.242;12.448;2024-01-30T04:15:20;102636.69;;;1.36;100.00
18765;BME280;9511;54.242;12.448;2024-01-30T04:17:47;102633.47;;;1.38;100.00
18765;BME280;9511;54.242;12.448;2024-01-30T04:20:14;102641.97;;;1.46;100.00
18765;BME280;9511;54.242;12.448;2024-01-30T04:22:44;102634.59;;;1.50;100.00
18765;BME280;9511;54.242;12.448;2024-01-30T04:25:12;102633.81;;;1.51;100.00
18765;BME280;9511;54.242;12.448;2024-01-30T04:27:39;102624.16;;;1.50;100.00
18765;BME280;9511;54.242;12.448;2024-01-30T04:30:07;102621.97;;;1.55;100.00
18765;BME280;9511;54.242;12.448;2024-01-30T04:32:35;102614.41;;;1.58;100.00
18765;BME280;9511;54.242;12.448;2024-01-30T04:35:02;102616.38;;;1.60;100.00
18765;BME280;9511;54.242;12.448;2024-01-30T04:37:29;102616.00;;;1.66;100.00
18765;BME280;9511;54.242;12.448;2024-01-30T04:39:58;102610.28;;;1.70;100.00
18765;BME280;9511;54.242;12.448;2024-01-30T04:42:25;102610.06;;;1.77;100.00
18765;BME280;9511;54.242;12.448;2024-01-30T04:44:53;102601.47;;;1.78;100.00
18765;BME280;9511;54.242;12.448;2024-01-30T04:47:20;102603.72;;;1.84;100.00
18765;BME280;9511;54.242;12.448;2024-01-30T04:49:47;102602.41;;;1.89;100.00
18765;BME280;9511;54.242;12.448;2024-01-30T04:52:14;102597.34;;;1.91;100.00
18765;BME280;9511;54.242;12.448;2024-01-30T04:54:41;102584.56;;;1.94;100.00
18765;BME280;9511;54.242;12.448;2024-01-30T04:57:10;102591.09;;;1.99;100.00
18765;BME280;9511;54.242;12.448;2024-01-30T04:59:38;102586.19;;;2.02;100.00
18765;BME280;9511;54.242;12.448;2024-01-30T05:02:05;102570.91;;;2.06;100.00
18765;BME280;9511;54.242;12.448;2024-01-30T05:04:32;102592.72;;;2.07;100.00
18765;BME280;9511;54.242;12.448;2024-01-30T05:07:00;102590.13;;;2.07;100.00
18765;BME280;9511;54.242;12.448;2024-01-30T05:09:27;102590.13;;;2.07;100.00
18765;BME280;9511;54.242;12.448;2024-01-30T05:11:55;102594.97;;;2.12;100.00
18765;BME280;9511;54.242;12.448;2024-01-30T05:14:23;102592.06;;;2.09;100.00
18765;BME280;9511;54.242;12.448;2024-01-30T05:16:51;102601.34;;;2.16;100.00
18765;BME280;9511;54.242;12.448;2024-01-30T05:19:18;102592.19;;;2.11;100.00
18765;BME280;9511;54.242;12.448;2024-01-30T05:21:46;102595.09;;;2.14;100.00
18765;BME280;9511;54.242;12.448;2024-01-30T05:24:13;102596.78;;;2.13;100.00
18765;BME280;9511;54.242;12.448;2024-01-30T05:26:40;102596.13;;;2.16;100.00
18765;BME280;9511;54.242;12.448;2024-01-30T05:29:08;102597.94;;;2.17;100.00
18765;BME280;9511;54.242;12.448;2024-01-30T05:31:36;102586.22;;;2.22;100.00
18765;BME280;9511;54.242;12.448;2024-01-30T05:34:04;102584.97;;;2.37;100.00
18765;BME280;9511;54.242;12.448;2024-01-30T05:36:32;102582.88;;;2.44;100.00
18765;BME280;9511;54.242;12.448;2024-01-30T05:39:00;102586.81;;;2.59;100.00
18765;BME280;9511;54.242;12.448;2024-01-30T05:41:27;102574.03;;;2.72;100.00
18765;BME280;9511;54.242;12.448;2024-01-30T05:43:54;102579.25;;;2.82;100.00
18765;BME280;9511;54.242;12.448;2024-01-30T05:46:22;102575.97;;;2.85;100.00
18765;BME280;9511;54.242;12.448;2024-01-30T05:48:50;102560.69;;;2.89;100.00
18765;BME280;9511;54.242;12.448;2024-01-30T05:51:18;102576.38;;;3.00;100.00
18765;BME280;9511;54.242;12.448;2024-01-30T05:53:45;102579.00;;;3.00;100.00
18765;BME280;9511;54.242;12.448;2024-01-30T05:56:12;102584.63;;;3.04;100.00
18765;BME280;9511;54.242;12.448;2024-01-30T05:58:41;102574.78;;;3.12;100.00
18765;BME280;9511;54.242;12.448;2024-01-30T06:01:09;102571.16;;;3.10;100.00
18765;BME280;9511;54.242;12.448;2024-01-30T06:03:36;102570.34;;;3.11;100.00
18765;BME280;9511;54.242;12.448;2024-01-30T06:06:06;102570.47;;;3.12;100.00
18765;BME280;9511;54.242;12.448;2024-01-30T06:08:33;102565.25;;;3.12;100.00
18765;BME280;9511;54.242;12.448;2024-01-30T06:11:01;102571.91;;;3.09;100.00
18765;BME280;9511;54.242;12.448;2024-01-30T06:13:28;102571.78;;;3.07;100.00
18765;BME280;9511;54.242;12.448;2024-01-30T06:15:57;102572.69;;;3.08;100.00
18765;BME280;9511;54.242;12.448;2024-01-30T06:18:25;102572.69;;;3.08;100.00
18765;BME280;9511;54.242;12.448;2024-01-30T06:20:53;102571.91;;;3.09;100.00
18765;BME280;9511;54.242;12.448;2024-01-30T06:23:21;102571.91;;;3.09;100.00
18765;BME280;9511;54.242;12.448;2024-01-30T06:25:49;102561.44;;;3.09;100.00
18765;BME280;9511;54.242;12.448;2024-01-30T06:28:16;102567.75;;;3.11;100.00
18765;BME280;9511;54.242;12.448;2024-01-30T06:30:43;102566.81;;;3.10;100.00
18765;BME280;9511;54.242;12.448;2024-01-30T06:33:11;102557.13;;;3.09;100.00
18765;BME280;9511;54.242;12.448;2024-01-30T06:35:40;102553.59;;;3.09;100.00
18765;BME280;9511;54.242;12.448;2024-01-30T06:38:07;102552.28;;;3.04;100.00
18765;BME280;9511;54.242;12.448;2024-01-30T06:40:37;102558.31;;;3.03;100.00
18765;BME280;9511;54.242;12.448;2024-01-30T06:43:05;102550.63;;;3.04;100.00
18765;BME280;9511;54.242;12.448;2024-01-30T06:45:33;102551.16;;;3.00;100.00
18765;BME280;9511;54.242;12.448;2024-01-30T06:48:01;102559.00;;;3.00;100.00
18765;BME280;9511;54.242;12.448;2024-01-30T06:50:29;102558.06;;;3.00;100.00
18765;BME280;9511;54.242;12.448;2024-01-30T06:52:56;102558.47;;;2.94;100.00
18765;BME280;9511;54.242;12.448;2024-01-30T06:55:23;102551.81;;;2.87;100.00
18765;BME280;9511;54.242;12.448;2024-01-30T06:57:52;102552.22;;;2.82;100.00
18765;BME280;9511;54.242;12.448;2024-01-30T07:00:19;102549.22;;;2.77;100.00
18765;BME280;9511;54.242;12.448;2024-01-30T07:02:47;102554.81;;;2.72;100.00
18765;BME280;9511;54.242;12.448;2024-01-30T07:05:15;102549.19;;;2.57;100.00
18765;BME280;9511;54.242;12.448;2024-01-30T07:07:43;102549.44;;;2.50;100.00
18765;BME280;9511;54.242;12.448;2024-01-30T07:10:10;102546.59;;;2.47;100.00
18765;BME280;9511;54.242;12.448;2024-01-30T07:12:38;102547.75;;;2.30;100.00
18765;BME280;9511;54.242;12.448;2024-01-30T07:15:07;102545.50;;;2.14;100.00
18765;BME280;9511;54.242;12.448;2024-01-30T07:17:35;102547.28;;;2.05;100.00
18765;BME280;9511;54.242;12.448;2024-01-30T07:20:03;102541.66;;;2.00;100.00
18765;BME280;9511;54.242;12.448;2024-01-30T07:22:33;102539.28;;;1.93;100.00
18765;BME280;9511;54.242;12.448;2024-01-30T07:25:00;102531.59;;;1.95;100.00
18765;BME280;9511;54.242;12.448;2024-01-30T07:27:28;102531.34;;;1.92;100.00
18765;BME280;9511;54.242;12.448;2024-01-30T07:29:55;102527.81;;;1.91;100.00
18765;BME280;9511;54.242;12.448;2024-01-30T07:32:24;102530.13;;;1.88;100.00
18765;BME280;9511;54.242;12.448;2024-01-30T07:34:51;102528.97;;;1.84;100.00
18765;BME280;9511;54.242;12.448;2024-01-30T07:37:18;102534.19;;;1.84;100.00
18765;BME280;9511;54.242;12.448;2024-01-30T07:39:45;102533.66;;;1.78;100.00
18765;BME280;9511;54.242;12.448;2024-01-30T07:42:13;102538.88;;;1.78;100.00
18765;BME280;9511;54.242;12.448;2024-01-30T07:44:40;102542.22;;;1.77;100.00
18765;BME280;9511;54.242;12.448;2024-01-30T07:47:07;102534.03;;;1.73;100.00
18765;BME280;9511;54.242;12.448;2024-01-30T07:49:36;102532.16;;;1.72;100.00
18765;BME280;9511;54.242;12.448;2024-01-30T07:52:04;102534.78;;;1.72;100.00
18765;BME280;9511;54.242;12.448;2024-01-30T07:54:32;102535.06;;;1.75;100.00
18765;BME280;9511;54.242;12.448;2024-01-30T07:57:00;102528.28;;;1.77;100.00
18765;BME280;9511;54.242;12.448;2024-01-30T07:59:28;102531.72;;;1.86;100.00
18765;BME280;9511;54.242;12.448;2024-01-30T08:01:55;102532.63;;;1.86;100.00
18765;BME280;9511;54.242;12.448;2024-01-30T08:04:22;102528.06;;;1.84;100.00
18765;BME280;9511;54.242;12.448;2024-01-30T08:06:51;102533.41;;;1.85;100.00
18765;BME280;9511;54.242;12.448;2024-01-30T08:09:18;102536.00;;;1.85;100.00
18765;BME280;9511;54.242;12.448;2024-01-30T08:11:46;102534.19;;;1.84;100.00
18765;BME280;9511;54.242;12.448;2024-01-30T08:14:13;102531.16;;;1.80;100.00
18765;BME280;9511;54.242;12.448;2024-01-30T08:16:40;102536.38;;;1.80;100.00
18765;BME280;9511;54.242;12.448;2024-01-30T08:19:08;102528.69;;;1.81;100.00
18765;BME280;9511;54.242;12.448;2024-01-30T08:21:35;102525.28;;;1.82;100.00
18765;BME280;9511;54.242;12.448;2024-01-30T08:24:05;102530.38;;;1.81;100.00
18765;BME280;9511;54.242;12.448;2024-01-30T08:26:33;102523.22;;;1.89;100.00
18765;BME280;9511;54.242;12.448;2024-01-30T08:29:01;102532.38;;;1.94;100.00
18765;BME280;9511;54.242;12.448;2024-01-30T08:31:28;102526.66;;;1.98;100.00
18765;BME280;9511;54.242;12.448;2024-01-30T08:33:55;102518.56;;;2.05;100.00
18765;BME280;9511;54.242;12.448;2024-01-30T08:36:22;102514.41;;;2.07;100.00
18765;BME280;9511;54.242;12.448;2024-01-30T08:38:50;102523.03;;;2.16;100.00
18765;BME280;9511;54.242;12.448;2024-01-30T08:41:19;102527.75;;;2.20;100.00
18765;BME280;9511;54.242;12.448;2024-01-30T08:43:46;102520.84;;;2.31;100.00
18765;BME280;9511;54.242;12.448;2024-01-30T08:46:17;102524.91;;;2.37;100.00
18765;BME280;9511;54.242;12.448;2024-01-30T08:48:44;102524.78;;;2.36;100.00
18765;BME280;9511;54.242;12.448;2024-01-30T08:51:12;102529.34;;;2.38;100.00
18765;BME280;9511;54.242;12.448;2024-01-30T08:53:39;102529.34;;;2.49;100.00
18765;BME280;9511;54.242;12.448;2024-01-30T08:56:06;102525.41;;;2.44;100.00
18765;BME280;9511;54.242;12.448;2024-01-30T08:58:35;102528.31;;;2.47;100.00
18765;BME280;9511;54.242;12.448;2024-01-30T09:01:02;102532.06;;;2.50;100.00
18765;BME280;9511;54.242;12.448;2024-01-30T09:03:31;102530.38;;;2.61;100.00
18765;BME280;9511;54.242;12.448;2024-01-30T09:05:58;102533.78;;;2.70;100.00
18765;BME280;9511;54.242;12.448;2024-01-30T09:08:26;102536.53;;;2.82;100.00
18765;BME280;9511;54.242;12.448;2024-01-30T09:10:53;102529.06;;;2.86;100.00
18765;BME280;9511;54.242;12.448;2024-01-30T09:13:21;102531.53;;;2.95;100.00
18765;BME280;9511;54.242;12.448;2024-01-30T09:15:49;102517.56;;;3.05;100.00
18765;BME280;9511;54.242;12.448;2024-01-30T09:18:17;102520.38;;;3.18;100.00
18765;BME280;9511;54.242;12.448;2024-01-30T09:20:45;102525.84;;;3.31;100.00
18765;BME280;9511;54.242;12.448;2024-01-30T09:23:13;102510.72;;;3.49;100.00
18765;BME280;9511;54.242;12.448;2024-01-30T09:25:41;102510.56;;;3.58;100.00
18765;BME280;9511;54.242;12.448;2024-01-30T09:28:09;102511.59;;;3.60;100.00
18765;BME280;9511;54.242;12.448;2024-01-30T09:30:36;102503.22;;;3.64;100.00
18765;BME280;9511;54.242;12.448;2024-01-30T09:33:05;102498.19;;;3.77;100.00
18765;BME280;9511;54.242;12.448;2024-01-30T09:35:32;102493.91;;;3.89;100.00
18765;BME280;9511;54.242;12.448;2024-01-30T09:38:00;102497.28;;;3.98;100.00
18765;BME280;9511;54.242;12.448;2024-01-30T09:40:27;102497.16;;;4.19;100.00
18765;BME280;9511;54.242;12.448;2024-01-30T09:42:54;102489.56;;;4.34;100.00
18765;BME280;9511;54.242;12.448;2024-01-30T09:45:24;102496.06;;;4.39;100.00
18765;BME280;9511;54.242;12.448;2024-01-30T09:47:52;102488.94;;;4.48;100.00
18765;BME280;9511;54.242;12.448;2024-01-30T09:50:21;102481.66;;;4.56;100.00
18765;BME280;9511;54.242;12.448;2024-01-30T09:52:49;102480.53;;;4.64;100.00
18765;BME280;9511;54.242;12.448;2024-01-30T09:55:18;102470.19;;;4.65;100.00
18765;BME280;9511;54.242;12.448;2024-01-30T09:57:50;102469.59;;;4.69;100.00
18765;BME280;9511;54.242;12.448;2024-01-30T10:00:17;102463.25;;;4.77;100.00
18765;BME280;9511;54.242;12.448;2024-01-30T10:02:45;102469.50;;;4.91;100.00
18765;BME280;9511;54.242;12.448;2024-01-30T10:05:15;102478.09;;;5.00;99.82
18765;BME280;9511;54.242;12.448;2024-01-30T10:07:55;102475.56;;;5.14;99.75
18765;BME280;9511;54.242;12.448;2024-01-30T10:10:22;102471.22;;;5.14;99.54
18765;BME280;9511;54.242;12.448;2024-01-30T10:12:50;102468.50;;;5.13;98.95
18765;BME280;9511;54.242;12.448;2024-01-30T10:15:18;102470.31;;;5.14;98.49
18765;BME280;9511;54.242;12.448;2024-01-30T10:17:45;102464.63;;;5.19;98.05
18765;BME280;9511;54.242;12.448;2024-01-30T10:20:13;102456.63;;;5.29;98.22
18765;BME280;9511;54.242;12.448;2024-01-30T10:22:40;102459.81;;;5.37;98.07
18765;BME280;9511;54.242;12.448;2024-01-30T10:25:10;102459.47;;;5.32;97.62
18765;BME280;9511;54.242;12.448;2024-01-30T10:27:39;102457.75;;;5.33;97.42
18765;BME280;9511;54.242;12.448;2024-01-30T10:30:07;102458.44;;;5.42;97.46
18765;BME280;9511;54.242;12.448;2024-01-30T10:32:35;102451.81;;;5.47;97.22
18765;BME280;9511;54.242;12.448;2024-01-30T10:35:02;102452.25;;;5.53;96.90
18765;BME280;9511;54.242;12.448;2024-01-30T10:37:30;102452.50;;;5.56;96.74
18765;BME280;9511;54.242;12.448;2024-01-30T10:40:02;102439.13;;;5.53;96.57
18765;BME280;9511;54.242;12.448;2024-01-30T10:42:36;102436.81;;;5.70;96.80
18765;BME280;9511;54.242;12.448;2024-01-30T10:45:06;102435.84;;;5.81;96.20
18765;BME280;9511;54.242;12.448;2024-01-30T10:47:35;102439.88;;;5.76;95.81
18765;BME280;9511;54.242;12.448;2024-01-30T10:50:03;102431.41;;;5.92;95.80
18765;BME280;9511;54.242;12.448;2024-01-30T10:52:31;102432.84;;;5.88;95.52
18765;BME280;9511;54.242;12.448;2024-01-30T10:55:00;102424.78;;;5.85;94.85
18765;BME280;9511;54.242;12.448;2024-01-30T10:57:27;102418.59;;;5.84;95.08
18765;BME280;9511;54.242;12.448;2024-01-30T10:59:58;102409.13;;;5.86;94.85
18765;BME280;9511;54.242;12.448;2024-01-30T11:02:27;102404.66;;;5.97;94.95
18765;BME280;9511;54.242;12.448;2024-01-30T11:04:56;102392.53;;;5.99;94.60
18765;BME280;9511;54.242;12.448;2024-01-30T11:07:25;102389.53;;;6.06;94.63
18765;BME280;9511;54.242;12.448;2024-01-30T11:09:54;102391.56;;;6.10;94.45
18765;BME280;9511;54.242;12.448;2024-01-30T11:12:27;102391.41;;;6.21;94.48
18765;BME280;9511;54.242;12.448;2024-01-30T11:15:04;102382.31;;;6.29;94.36
18765;BME280;9511;54.242;12.448;2024-01-30T11:17:42;102388.06;;;6.36;93.98
18765;BME280;9511;54.242;12.448;2024-01-30T11:20:10;102384.34;;;6.33;93.86
18765;BME280;9511;54.242;12.448;2024-01-30T11:22:37;102382.22;;;6.41;93.72
18765;BME280;9511;54.242;12.448;2024-01-30T11:25:05;102376.69;;;6.49;93.12
18765;BME280;9511;54.242;12.448;2024-01-30T11:27:34;102378.13;;;6.71;93.28
18765;BME280;9511;54.242;12.448;2024-01-30T11:30:03;102371.34;;;6.74;92.92
18765;BME280;9511;54.242;12.448;2024-01-30T11:32:31;102377.00;;;6.80;92.62
18765;BME280;9511;54.242;12.448;2024-01-30T11:34:58;102369.31;;;6.70;91.55
18765;BME280;9511;54.242;12.448;2024-01-30T11:37:25;102372.66;;;6.68;91.48
18765;BME280;9511;54.242;12.448;2024-01-30T11:39:53;102367.81;;;6.74;91.86
18765;BME280;9511;54.242;12.448;2024-01-30T11:42:24;102360.53;;;6.70;91.19
18765;BME280;9511;54.242;12.448;2024-01-30T11:44:51;102354.66;;;6.60;91.54
18765;BME280;9511;54.242;12.448;2024-01-30T11:47:20;102350.63;;;6.65;91.87
18765;BME280;9511;54.242;12.448;2024-01-30T11:49:49;102340.59;;;6.73;91.83
18765;BME280;9511;54.242;12.448;2024-01-30T11:52:17;102345.38;;;6.79;91.85
18765;BME280;9511;54.242;12.448;2024-01-30T11:54:45;102336.88;;;6.83;91.22
18765;BME280;9511;54.242;12.448;2024-01-30T11:57:12;102322.47;;;6.91;91.42
18765;BME280;9511;54.242;12.448;2024-01-30T11:59:40;102326.75;;;6.89;91.75
18765;BME280;9511;54.242;12.448;2024-01-30T12:02:07;102327.44;;;7.00;91.46
18765;BME280;9511;54.242;12.448;2024-01-30T12:04:36;102323.88;;;6.99;91.46
18765;BME280;9511;54.242;12.448;2024-01-30T12:07:03;102332.38;;;7.08;91.99
18765;BME280;9511;54.242;12.448;2024-01-30T12:09:31;102318.91;;;7.17;91.66
18765;BME280;9511;54.242;12.448;2024-01-30T12:11:58;102320.03;;;7.07;91.50
18765;BME280;9511;54.242;12.448;2024-01-30T12:14:26;102321.84;;;7.08;91.86
18765;BME280;9511;54.242;12.448;2024-01-30T12:16:54;102315.06;;;7.12;91.71
18765;BME280;9511;54.242;12.448;2024-01-30T12:19:22;102326.16;;;7.21;91.21
18765;BME280;9511;54.242;12.448;2024-01-30T12:21:55;102332.53;;;7.25;91.49
18765;BME280;9511;54.242;12.448;2024-01-30T12:24:23;102323.22;;;7.16;91.23
18765;BME280;9511;54.242;12.448;2024-01-30T12:26:50;102324.44;;;7.22;90.88
18765;BME280;9511;54.242;12.448;2024-01-30T12:29:17;102315.03;;;7.25;90.82
18765;BME280;9511;54.242;12.448;2024-01-30T12:31:45;102306.53;;;7.16;90.78
18765;BME280;9511;54.242;12.448;2024-01-30T12:34:13;102299.16;;;7.24;91.22
18765;BME280;9511;54.242;12.448;2024-01-30T12:36:41;102300.22;;;7.27;91.79
18765;BME280;9511;54.242;12.448;2024-01-30T12:39:12;102303.06;;;7.30;91.63
18765;BME280;9511;54.242;12.448;2024-01-30T12:41:40;102297.00;;;7.31;91.93
18765;BME280;9511;54.242;12.448;2024-01-30T12:44:07;102294.34;;;7.31;91.77
18765;BME280;9511;54.242;12.448;2024-01-30T12:46:35;102293.59;;;7.47;91.87
18765;BME280;9511;54.242;12.448;2024-01-30T12:49:02;102291.34;;;7.53;91.76
18765;BME280;9511;54.242;12.448;2024-01-30T12:51:29;102289.25;;;7.62;91.07
18765;BME280;9511;54.242;12.448;2024-01-30T12:53:57;102285.09;;;7.66;91.19
18765;BME280;9511;54.242;12.448;2024-01-30T12:56:25;102286.22;;;7.69;90.60
18765;BME280;9511;54.242;12.448;2024-01-30T12:58:53;102280.13;;;7.70;91.09
18765;BME280;9511;54.242;12.448;2024-01-30T13:01:20;102285.66;;;7.90;91.14
18765;BME280;9511;54.242;12.448;2024-01-30T13:03:48;102280.78;;;7.96;90.65
18765;BME280;9511;54.242;12.448;2024-01-30T13:06:16;102271.13;;;7.96;91.08
18765;BME280;9511;54.242;12.448;2024-01-30T13:08:43;102280.59;;;7.93;90.36
18765;BME280;9511;54.242;12.448;2024-01-30T13:11:10;102283.78;;;7.87;90.89
18765;BME280;9511;54.242;12.448;2024-01-30T13:13:40;102274.88;;;8.00;90.50
18765;BME280;9511;54.242;12.448;2024-01-30T13:16:07;102277.97;;;7.93;90.39
18765;BME280;9511;54.242;12.448;2024-01-30T13:18:34;102267.50;;;7.94;89.87
18765;BME280;9511;54.242;12.448;2024-01-30T13:21:02;102266.78;;;7.97;90.20
18765;BME280;9511;54.242;12.448;2024-01-30T13:23:29;102262.16;;;7.93;90.62
18765;BME280;9511;54.242;12.448;2024-01-30T13:25:56;102271.13;;;7.82;90.46
18765;BME280;9511;54.242;12.448;2024-01-30T13:28:24;102269.88;;;7.90;90.89
18765;BME280;9511;54.242;12.448;2024-01-30T13:30:53;102267.78;;;7.84;90.75
18765;BME280;9511;54.242;12.448;2024-01-30T13:33:20;102269.25;;;7.94;91.07
18765;BME280;9511;54.242;12.448;2024-01-30T13:35:48;102273.16;;;7.86;91.13
18765;BME280;9511;54.242;12.448;2024-01-30T13:38:15;102266.59;;;7.94;91.55
18765;BME280;9511;54.242;12.448;2024-01-30T13:40:43;102266.41;;;7.91;91.21
18765;BME280;9511;54.242;12.448;2024-01-30T13:43:10;102253.06;;;7.88;91.06
18765;BME280;9511;54.242;12.448;2024-01-30T13:45:38;102254.88;;;7.89;90.99
18765;BME280;9511;54.242;12.448;2024-01-30T13:48:07;102255.88;;;7.91;91.68
18765;BME280;9511;54.242;12.448;2024-01-30T13:50:34;102247.81;;;7.88;90.84
18765;BME280;9511;54.242;12.448;2024-01-30T13:53:02;102240.88;;;7.90;91.35
18765;BME280;9511;54.242;12.448;2024-01-30T13:55:30;102246.63;;;7.97;91.01
18765;BME280;9511;54.242;12.448;2024-01-30T13:57:57;102236.78;;;7.95;90.84
18765;BME280;9511;54.242;12.448;2024-01-30T14:00:24;102239.00;;;7.87;91.26
18765;BME280;9511;54.242;12.448;2024-01-30T14:02:52;102241.78;;;7.90;90.44
18765;BME280;9511;54.242;12.448;2024-01-30T14:05:21;102251.34;;;7.88;90.52
18765;BME280;9511;54.242;12.448;2024-01-30T14:07:49;102251.06;;;7.84;90.27
18765;BME280;9511;54.242;12.448;2024-01-30T14:10:17;102257.50;;;7.89;91.50
18765;BME280;9511;54.242;12.448;2024-01-30T14:12:44;102249.97;;;7.80;90.88
18765;BME280;9511;54.242;12.448;2024-01-30T14:15:11;102243.41;;;7.73;91.41
18765;BME280;9511;54.242;12.448;2024-01-30T14:17:40;102249.50;;;7.72;91.63
18765;BME280;9511;54.242;12.448;2024-01-30T14:20:08;102250.03;;;7.67;91.82
18765;BME280;9511;54.242;12.448;2024-01-30T14:22:38;102250.94;;;7.67;92.38
18765;BME280;9511;54.242;12.448;2024-01-30T14:25:06;102249.34;;;7.69;92.42
18765;BME280;9511;54.242;12.448;2024-01-30T14:27:34;102261.31;;;7.64;92.49
18765;BME280;9511;54.242;12.448;2024-01-30T14:30:02;102256.94;;;7.65;92.73
18765;BME280;9511;54.242;12.448;2024-01-30T14:32:32;102251.59;;;7.63;92.55
18765;BME280;9511;54.242;12.448;2024-01-30T14:34:59;102260.75;;;7.55;92.71
18765;BME280;9511;54.242;12.448;2024-01-30T14:37:26;102242.75;;;7.48;92.73
18765;BME280;9511;54.242;12.448;2024-01-30T14:39:57;102244.19;;;7.43;92.77
18765;BME280;9511;54.242;12.448;2024-01-30T14:42:24;102241.09;;;7.35;93.25
18765;BME280;9511;54.242;12.448;2024-01-30T14:44:53;102250.06;;;7.39;93.24
18765;BME280;9511;54.242;12.448;2024-01-30T14:47:20;102252.53;;;7.36;93.15
18765;BME280;9511;54.242;12.448;2024-01-30T14:49:48;102257.41;;;7.30;93.18
18765;BME280;9511;54.242;12.448;2024-01-30T14:52:16;102255.69;;;7.30;93.91
18765;BME280;9511;54.242;12.448;2024-01-30T14:54:43;102269.38;;;7.25;93.51
18765;BME280;9511;54.242;12.448;2024-01-30T14:57:12;102277.44;;;7.28;93.75
18765;BME280;9511;54.242;12.448;2024-01-30T14:59:40;102272.19;;;7.28;93.80
18765;BME280;9511;54.242;12.448;2024-01-30T15:02:07;102279.09;;;7.26;92.93
18765;BME280;9511;54.242;12.448;2024-01-30T15:04:35;102273.66;;;7.23;92.89
18765;BME280;9511;54.242;12.448;2024-01-30T15:07:02;102272.25;;;7.14;93.73
18765;BME280;9511;54.242;12.448;2024-01-30T15:09:30;102279.13;;;7.12;93.63
18765;BME280;9511;54.242;12.448;2024-01-30T15:11:57;102271.84;;;7.08;93.61
18765;BME280;9511;54.242;12.448;2024-01-30T15:14:26;102269.84;;;7.04;93.81
18765;BME280;9511;54.242;12.448;2024-01-30T15:16:53;102267.03;;;7.01;94.00
18765;BME280;9511;54.242;12.448;2024-01-30T15:19:20;102266.13;;;7.01;94.55
18765;BME280;9511;54.242;12.448;2024-01-30T15:21:48;102262.38;;;6.97;94.25
18765;BME280;9511;54.242;12.448;2024-01-30T15:24:15;102266.81;;;6.98;94.19
18765;BME280;9511;54.242;12.448;2024-01-30T15:26:44;102261.47;;;6.97;94.86
18765;BME280;9511;54.242;12.448;2024-01-30T15:29:11;102254.31;;;6.94;94.34
18765;BME280;9511;54.242;12.448;2024-01-30T15:31:41;102255.09;;;6.93;95.09
18765;BME280;9511;54.242;12.448;2024-01-30T15:34:08;102254.19;;;6.92;94.66
18765;BME280;9511;54.242;12.448;2024-01-30T15:36:36;102254.91;;;6.90;95.43
18765;BME280;9511;54.242;12.448;2024-01-30T15:39:03;102247.84;;;6.89;95.47
18765;BME280;9511;54.242;12.448;2024-01-30T15:41:31;102254.53;;;6.84;94.96
18765;BME280;9511;54.242;12.448;2024-01-30T15:43:58;102261.69;;;6.86;94.95
18765;BME280;9511;54.242;12.448;2024-01-30T15:46:28;102263.22;;;6.83;95.75
18765;BME280;9511;54.242;12.448;2024-01-30T15:48:56;102264.81;;;6.81;95.65
18765;BME280;9511;54.242;12.448;2024-01-30T15:51:24;102263.22;;;6.83;95.25
18765;BME280;9511;54.242;12.448;2024-01-30T15:53:51;102274.25;;;6.77;95.91
18765;BME280;9511;54.242;12.448;2024-01-30T15:56:18;102269.69;;;6.75;95.80
18765;BME280;9511;54.242;12.448;2024-01-30T15:58:45;102270.41;;;6.72;95.84
18765;BME280;9511;54.242;12.448;2024-01-30T16:01:15;102272.03;;;6.70;96.58
18765;BME280;9511;54.242;12.448;2024-01-30T16:03:43;102273.88;;;6.71;96.73
18765;BME280;9511;54.242;12.448;2024-01-30T16:06:13;102267.66;;;6.71;96.74
18765;BME280;9511;54.242;12.448;2024-01-30T16:08:41;102274.56;;;6.69;96.52
18765;BME280;9511;54.242;12.448;2024-01-30T16:11:09;102266.28;;;6.62;97.25
18765;BME280;9511;54.242;12.448;2024-01-30T16:13:36;102275.66;;;6.59;97.25
18765;BME280;9511;54.242;12.448;2024-01-30T16:16:05;102265.06;;;6.57;97.33
18765;BME280;9511;54.242;12.448;2024-01-30T16:18:33;102268.50;;;6.56;97.76
18765;BME280;9511;54.242;12.448;2024-01-30T16:21:00;102265.06;;;6.57;98.15
18765;BME280;9511;54.242;12.448;2024-01-30T16:23:29;102264.47;;;6.61;98.52
18765;BME280;9511;54.242;12.448;2024-01-30T16:25:56;102270.03;;;6.66;98.59
18765;BME280;9511;54.242;12.448;2024-01-30T16:28:25;102277.00;;;6.65;98.59
18765;BME280;9511;54.242;12.448;2024-01-30T16:30:52;102272.75;;;6.68;98.49
18765;BME280;9511;54.242;12.448;2024-01-30T16:33:20;102273.97;;;6.73;98.87
18765;BME280;9511;54.242;12.448;2024-01-30T16:35:47;102266.97;;;6.73;98.93
18765;BME280;9511;54.242;12.448;2024-01-30T16:38:14;102256.47;;;6.73;98.67
18765;BME280;9511;54.242;12.448;2024-01-30T16:40:43;102248.66;;;6.75;98.60
18765;BME280;9511;54.242;12.448;2024-01-30T16:43:11;102259.00;;;6.72;99.27
18765;BME280;9511;54.242;12.448;2024-01-30T16:45:40;102262.41;;;6.71;99.00
18765;BME280;9511;54.242;12.448;2024-01-30T16:48:26;102265.97;;;6.71;99.81
18765;BME280;9511;54.242;12.448;2024-01-30T16:51:13;102256.25;;;6.70;99.50
18765;BME280;9511;54.242;12.448;2024-01-30T16:54:01;102262.41;;;6.71;99.86
18765;BME280;9511;54.242;12.448;2024-01-30T16:56:53;102269.50;;;6.72;99.56
18765;BME280;9511;54.242;12.448;2024-01-30T16:59:42;102262.63;;;6.74;100.00
18765;BME280;9511;54.242;12.448;2024-01-30T17:02:29;102268.09;;;6.77;100.00
18765;BME280;9511;54.242;12.448;2024-01-30T17:05:15;102266.47;;;6.79;100.00